sensor_id;sensor_type;location;lat;lon;timestamp;P1;durP1;ratioP1;P2;durP2;ratioP2
24084;SDS011;12268;52.110;5.548;2022-09-09T00:01:16;4.07;;;1.95;;
24084;SDS011;12268;52.110;5.548;2022-09-09T00:03:57;4.38;;;2.15;;
24084;SDS011;12268;52.110;5.548;2022-09-09T00:06:50;4.72;;;2.47;;
24084;SDS011;12268;52.110;5.548;2022-09-09T00:09:52;3.67;;;2.42;;
24084;SDS011;12268;52.110;5.548;2022-09-09T00:15:00;4.97;;;2.58;;
24084;SDS011;12268;52.110;5.548;2022-09-09T00:20:14;3.88;;;2.47;;
24084;SDS011;12268;52.110;5.548;2022-09-09T00:25:58;5.13;;;2.25;;
24084;SDS011;12268;52.110;5.548;2022-09-09T00:28:45;6.05;;;2.55;;
24084;SDS011;12268;52.110;5.548;2022-09-09T00:31:26;4.53;;;2.67;;
24084;SDS011;12268;52.110;5.548;2022-09-09T00:33:53;3.97;;;2.83;;
24084;SDS011;12268;52.110;5.548;2022-09-09T00:36:23;5.13;;;2.80;;
24084;SDS011;12268;52.110;5.548;2022-09-09T00:38:56;5.47;;;3.20;;
24084;SDS011;12268;52.110;5.548;2022-09-09T00:44:51;5.45;;;3.38;;
24084;SDS011;12268;52.110;5.548;2022-09-09T00:53:13;7.20;;;3.92;;
24084;SDS011;12268;52.110;5.548;2022-09-09T00:58:42;5.80;;;3.80;;
24084;SDS011;12268;52.110;5.548;2022-09-09T01:01:16;8.75;;;3.75;;
24084;SDS011;12268;52.110;5.548;2022-09-09T01:03:55;6.57;;;3.92;;
24084;SDS011;12268;52.110;5.548;2022-09-09T01:10:03;6.28;;;3.60;;
24084;SDS011;12268;52.110;5.548;2022-09-09T01:14:50;8.05;;;4.70;;
24084;SDS011;12268;52.110;5.548;2022-09-09T01:17:32;6.80;;;3.80;;
24084;SDS011;12268;52.110;5.548;2022-09-09T01:20:19;6.78;;;4.18;;
24084;SDS011;12268;52.110;5.548;2022-09-09T01:26:04;9.93;;;4.18;;
24084;SDS011;12268;52.110;5.548;2022-09-09T01:28:34;8.57;;;4.47;;
24084;SDS011;12268;52.110;5.548;2022-09-09T01:31:02;7.53;;;4.20;;
24084;SDS011;12268;52.110;5.548;2022-09-09T06:43:37;10.75;;;4.72;;
24084;SDS011;12268;52.110;5.548;2022-09-09T06:46:04;8.77;;;4.07;;
24084;SDS011;12268;52.110;5.548;2022-09-09T06:48:40;8.57;;;4.22;;
24084;SDS011;12268;52.110;5.548;2022-09-09T06:51:08;11.80;;;4.18;;
24084;SDS011;12268;52.110;5.548;2022-09-09T06:53:39;9.48;;;4.05;;
24084;SDS011;12268;52.110;5.548;2022-09-09T06:58:35;10.93;;;3.60;;
24084;SDS011;12268;52.110;5.548;2022-09-09T07:01:07;7.10;;;3.45;;
24084;SDS011;12268;52.110;5.548;2022-09-09T07:03:33;9.75;;;3.88;;
24084;SDS011;12268;52.110;5.548;2022-09-09T07:05:59;6.95;;;3.47;;
24084;SDS011;12268;52.110;5.548;2022-09-09T07:08:26;12.18;;;3.63;;
24084;SDS011;12268;52.110;5.548;2022-09-09T07:10:51;11.18;;;3.20;;
24084;SDS011;12268;52.110;5.548;2022-09-09T07:13:24;12.25;;;3.58;;
24084;SDS011;12268;52.110;5.548;2022-09-09T07:15:50;8.25;;;2.88;;
24084;SDS011;12268;52.110;5.548;2022-09-09T07:18:19;7.05;;;3.15;;
24084;SDS011;12268;52.110;5.548;2022-09-09T07:20:54;10.52;;;3.58;;
24084;SDS011;12268;52.110;5.548;2022-09-09T07:23:22;7.57;;;3.05;;
24084;SDS011;12268;52.110;5.548;2022-09-09T07:25:47;9.40;;;3.10;;
24084;SDS011;12268;52.110;5.548;2022-09-09T07:28:13;9.30;;;3.15;;
24084;SDS011;12268;52.110;5.548;2022-09-09T07:30:39;9.73;;;4.03;;
24084;SDS011;12268;52.110;5.548;2022-09-09T07:33:05;8.63;;;2.97;;
24084;SDS011;12268;52.110;5.548;2022-09-09T07:35:31;7.53;;;3.00;;
24084;SDS011;12268;52.110;5.548;2022-09-09T07:37:57;7.80;;;3.28;;
24084;SDS011;12268;52.110;5.548;2022-09-09T07:40:23;7.40;;;2.63;;
24084;SDS011;12268;52.110;5.548;2022-09-09T07:42:49;6.97;;;3.00;;
24084;SDS011;12268;52.110;5.548;2022-09-09T07:45:14;10.85;;;3.28;;
24084;SDS011;12268;52.110;5.548;2022-09-09T07:47:40;7.50;;;2.53;;
24084;SDS011;12268;52.110;5.548;2022-09-09T07:50:09;11.18;;;3.10;;
24084;SDS011;12268;52.110;5.548;2022-09-09T07:52:36;10.32;;;3.33;;
24084;SDS011;12268;52.110;5.548;2022-09-09T07:55:02;9.52;;;2.75;;
24084;SDS011;12268;52.110;5.548;2022-09-09T07:57:29;8.60;;;3.20;;
24084;SDS011;12268;52.110;5.548;2022-09-09T07:59:55;8.32;;;3.20;;
24084;SDS011;12268;52.110;5.548;2022-09-09T08:02:22;9.77;;;3.20;;
24084;SDS011;12268;52.110;5.548;2022-09-09T08:04:48;5.93;;;3.13;;
24084;SDS011;12268;52.110;5.548;2022-09-09T08:07:14;11.93;;;3.50;;
24084;SDS011;12268;52.110;5.548;2022-09-09T08:09:41;10.13;;;2.88;;
24084;SDS011;12268;52.110;5.548;2022-09-09T08:12:07;5.53;;;2.75;;
24084;SDS011;12268;52.110;5.548;2022-09-09T08:14:33;7.15;;;2.60;;
24084;SDS011;12268;52.110;5.548;2022-09-09T08:16:59;8.60;;;2.80;;
24084;SDS011;12268;52.110;5.548;2022-09-09T08:19:25;6.60;;;2.60;;
24084;SDS011;12268;52.110;5.548;2022-09-09T08:21:50;8.10;;;3.03;;
24084;SDS011;12268;52.110;5.548;2022-09-09T08:24:16;9.82;;;2.72;;
24084;SDS011;12268;52.110;5.548;2022-09-09T08:26:44;7.45;;;2.80;;
24084;SDS011;12268;52.110;5.548;2022-09-09T08:29:12;6.97;;;2.30;;
24084;SDS011;12268;52.110;5.548;2022-09-09T08:31:42;5.53;;;2.10;;
24084;SDS011;12268;52.110;5.548;2022-09-09T08:34:10;9.82;;;2.97;;
24084;SDS011;12268;52.110;5.548;2022-09-09T08:36:40;8.90;;;2.00;;
24084;SDS011;12268;52.110;5.548;2022-09-09T08:41:43;12.18;;;3.00;;
24084;SDS011;12268;52.110;5.548;2022-09-09T08:47:02;9.32;;;2.50;;
24084;SDS011;12268;52.110;5.548;2022-09-09T08:51:59;6.25;;;2.17;;
24084;SDS011;12268;52.110;5.548;2022-09-09T08:54:26;8.18;;;2.63;;
24084;SDS011;12268;52.110;5.548;2022-09-09T08:56:58;6.95;;;2.30;;
24084;SDS011;12268;52.110;5.548;2022-09-09T08:59:23;5.03;;;2.22;;
24084;SDS011;12268;52.110;5.548;2022-09-09T09:02:04;8.77;;;2.42;;
24084;SDS011;12268;52.110;5.548;2022-09-09T09:10:31;7.82;;;2.50;;
24084;SDS011;12268;52.110;5.548;2022-09-09T09:13:18;7.35;;;2.38;;
24084;SDS011;12268;52.110;5.548;2022-09-09T09:15:51;5.15;;;2.17;;
24084;SDS011;12268;52.110;5.548;2022-09-09T09:18:21;11.70;;;2.83;;
24084;SDS011;12268;52.110;5.548;2022-09-09T09:20:49;6.78;;;2.65;;
24084;SDS011;12268;52.110;5.548;2022-09-09T09:23:21;6.28;;;2.03;;
24084;SDS011;12268;52.110;5.548;2022-09-09T09:25:49;5.25;;;2.10;;
24084;SDS011;12268;52.110;5.548;2022-09-09T09:28:17;6.78;;;2.58;;
24084;SDS011;12268;52.110;5.548;2022-09-09T09:33:44;6.50;;;2.10;;
24084;SDS011;12268;52.110;5.548;2022-09-09T09:36:13;8.82;;;2.40;;
24084;SDS011;12268;52.110;5.548;2022-09-09T09:38:52;8.77;;;2.28;;
24084;SDS011;12268;52.110;5.548;2022-09-09T09:43:55;11.82;;;2.38;;
24084;SDS011;12268;52.110;5.548;2022-09-09T09:46:21;6.55;;;2.13;;
24084;SDS011;12268;52.110;5.548;2022-09-09T09:49:01;4.78;;;2.20;;
24084;SDS011;12268;52.110;5.548;2022-09-09T09:51:30;13.23;;;2.63;;
24084;SDS011;12268;52.110;5.548;2022-09-09T09:54:06;6.13;;;2.20;;
24084;SDS011;12268;52.110;5.548;2022-09-09T09:56:38;9.15;;;3.10;;
24084;SDS011;12268;52.110;5.548;2022-09-09T09:59:05;7.25;;;2.17;;
24084;SDS011;12268;52.110;5.548;2022-09-09T10:01:44;13.10;;;2.47;;
24084;SDS011;12268;52.110;5.548;2022-09-09T10:04:14;6.82;;;1.90;;
24084;SDS011;12268;52.110;5.548;2022-09-09T10:06:43;4.25;;;1.75;;
24084;SDS011;12268;52.110;5.548;2022-09-09T10:09:20;6.95;;;2.30;;
24084;SDS011;12268;52.110;5.548;2022-09-09T10:19:20;12.20;;;2.38;;
24084;SDS011;12268;52.110;5.548;2022-09-09T10:27:03;10.77;;;2.50;;
24084;SDS011;12268;52.110;5.548;2022-09-09T10:29:50;8.75;;;2.40;;
24084;SDS011;12268;52.110;5.548;2022-09-09T10:35:30;8.40;;;2.20;;
24084;SDS011;12268;52.110;5.548;2022-09-09T10:48:37;6.93;;;2.05;;
24084;SDS011;12268;52.110;5.548;2022-09-09T10:57:27;5.95;;;2.40;;
24084;SDS011;12268;52.110;5.548;2022-09-09T11:00:01;6.25;;;2.40;;
24084;SDS011;12268;52.110;5.548;2022-09-09T11:02:32;9.45;;;2.83;;
24084;SDS011;12268;52.110;5.548;2022-09-09T11:05:16;5.43;;;2.80;;
24084;SDS011;12268;52.110;5.548;2022-09-09T11:07:54;8.43;;;3.50;;
24084;SDS011;12268;52.110;5.548;2022-09-09T11:10:39;8.70;;;3.30;;
24084;SDS011;12268;52.110;5.548;2022-09-09T11:13:17;8.07;;;3.42;;
24084;SDS011;12268;52.110;5.548;2022-09-09T11:16:04;7.93;;;3.42;;
24084;SDS011;12268;52.110;5.548;2022-09-09T11:18:40;10.70;;;3.38;;
24084;SDS011;12268;52.110;5.548;2022-09-09T11:21:09;9.07;;;3.13;;
24084;SDS011;12268;52.110;5.548;2022-09-09T11:23:48;7.55;;;2.90;;
24084;SDS011;12268;52.110;5.548;2022-09-09T11:26:28;8.68;;;2.50;;
24084;SDS011;12268;52.110;5.548;2022-09-09T11:31:48;8.50;;;2.95;;
24084;SDS011;12268;52.110;5.548;2022-09-09T11:37:23;8.18;;;3.13;;
24084;SDS011;12268;52.110;5.548;2022-09-09T11:40:24;7.32;;;2.60;;
24084;SDS011;12268;52.110;5.548;2022-09-09T11:43:02;5.88;;;2.83;;
24084;SDS011;12268;52.110;5.548;2022-09-09T11:45:30;9.25;;;2.50;;
24084;SDS011;12268;52.110;5.548;2022-09-09T11:47:59;8.73;;;3.08;;
24084;SDS011;12268;52.110;5.548;2022-09-09T11:50:33;5.20;;;2.30;;
24084;SDS011;12268;52.110;5.548;2022-09-09T11:53:05;7.32;;;2.47;;
24084;SDS011;12268;52.110;5.548;2022-09-09T11:55:37;6.43;;;3.25;;
24084;SDS011;12268;52.110;5.548;2022-09-09T11:58:04;8.23;;;3.20;;
24084;SDS011;12268;52.110;5.548;2022-09-09T12:00:42;7.50;;;3.33;;
24084;SDS011;12268;52.110;5.548;2022-09-09T12:05:54;5.30;;;2.55;;
24084;SDS011;12268;52.110;5.548;2022-09-09T12:08:24;4.07;;;2.72;;
24084;SDS011;12268;52.110;5.548;2022-09-09T12:13:25;6.53;;;3.30;;
24084;SDS011;12268;52.110;5.548;2022-09-09T12:15:52;7.05;;;2.50;;
24084;SDS011;12268;52.110;5.548;2022-09-09T12:26:21;6.43;;;2.25;;
24084;SDS011;12268;52.110;5.548;2022-09-09T12:29:12;5.65;;;2.20;;
24084;SDS011;12268;52.110;5.548;2022-09-09T12:31:41;5.65;;;2.53;;
24084;SDS011;12268;52.110;5.548;2022-09-09T12:39:57;7.40;;;2.90;;
24084;SDS011;12268;52.110;5.548;2022-09-09T12:42:24;9.00;;;2.92;;
24084;SDS011;12268;52.110;5.548;2022-09-09T12:44:53;9.57;;;3.45;;
24084;SDS011;12268;52.110;5.548;2022-09-09T12:47:57;7.07;;;3.08;;
24084;SDS011;12268;52.110;5.548;2022-09-09T12:50:21;7.43;;;3.42;;
24084;SDS011;12268;52.110;5.548;2022-09-09T12:52:50;7.05;;;2.83;;
24084;SDS011;12268;52.110;5.548;2022-09-09T12:55:23;7.43;;;2.40;;
24084;SDS011;12268;52.110;5.548;2022-09-09T12:57:52;5.93;;;2.63;;
24084;SDS011;12268;52.110;5.548;2022-09-09T13:00:19;11.35;;;3.28;;
24084;SDS011;12268;52.110;5.548;2022-09-09T13:02:54;5.78;;;2.90;;
24084;SDS011;12268;52.110;5.548;2022-09-09T13:05:23;5.63;;;2.72;;
24084;SDS011;12268;52.110;5.548;2022-09-09T16:16:58;5.32;;;2.05;;
24084;SDS011;12268;52.110;5.548;2022-09-09T16:19:23;3.17;;;1.90;;
24084;SDS011;12268;52.110;5.548;2022-09-09T16:21:49;4.55;;;2.00;;
24084;SDS011;12268;52.110;5.548;2022-09-09T16:24:16;2.50;;;1.90;;
24084;SDS011;12268;52.110;5.548;2022-09-09T16:26:43;4.95;;;1.95;;
24084;SDS011;12268;52.110;5.548;2022-09-09T16:29:11;4.22;;;2.08;;
24084;SDS011;12268;52.110;5.548;2022-09-09T16:31:37;3.88;;;2.20;;
24084;SDS011;12268;52.110;5.548;2022-09-09T16:34:04;3.55;;;1.92;;
24084;SDS011;12268;52.110;5.548;2022-09-09T16:36:30;4.75;;;2.30;;
24084;SDS011;12268;52.110;5.548;2022-09-09T16:38:59;4.80;;;2.42;;
24084;SDS011;12268;52.110;5.548;2022-09-09T16:41:30;5.45;;;2.80;;
24084;SDS011;12268;52.110;5.548;2022-09-09T16:43:57;4.50;;;2.30;;
24084;SDS011;12268;52.110;5.548;2022-09-09T16:46:24;5.25;;;3.05;;
24084;SDS011;12268;52.110;5.548;2022-09-09T16:48:52;2.85;;;2.20;;
24084;SDS011;12268;52.110;5.548;2022-09-09T16:51:20;4.03;;;2.13;;
24084;SDS011;12268;52.110;5.548;2022-09-09T16:56:18;5.93;;;2.58;;
24084;SDS011;12268;52.110;5.548;2022-09-09T16:58:49;4.80;;;2.60;;
24084;SDS011;12268;52.110;5.548;2022-09-09T17:01:15;7.95;;;2.88;;
24084;SDS011;12268;52.110;5.548;2022-09-09T17:03:41;6.03;;;2.47;;
24084;SDS011;12268;52.110;5.548;2022-09-09T17:06:10;8.25;;;2.67;;
24084;SDS011;12268;52.110;5.548;2022-09-09T17:08:37;4.50;;;2.58;;
24084;SDS011;12268;52.110;5.548;2022-09-09T17:11:12;3.85;;;2.65;;
24084;SDS011;12268;52.110;5.548;2022-09-09T17:13:39;4.13;;;2.83;;
24084;SDS011;12268;52.110;5.548;2022-09-09T17:16:06;8.07;;;2.80;;
24084;SDS011;12268;52.110;5.548;2022-09-09T17:18:33;5.97;;;3.20;;
24084;SDS011;12268;52.110;5.548;2022-09-09T17:21:02;6.82;;;3.05;;
24084;SDS011;12268;52.110;5.548;2022-09-09T17:23:29;5.35;;;3.13;;
24084;SDS011;12268;52.110;5.548;2022-09-09T17:25:55;6.43;;;3.10;;
24084;SDS011;12268;52.110;5.548;2022-09-09T17:28:22;6.80;;;3.70;;
24084;SDS011;12268;52.110;5.548;2022-09-09T17:30:52;4.80;;;3.33;;
24084;SDS011;12268;52.110;5.548;2022-09-09T17:33:18;5.25;;;3.38;;
24084;SDS011;12268;52.110;5.548;2022-09-09T17:35:45;7.57;;;3.90;;
24084;SDS011;12268;52.110;5.548;2022-09-09T17:38:11;11.63;;;4.05;;
24084;SDS011;12268;52.110;5.548;2022-09-09T17:40:37;7.07;;;3.38;;
24084;SDS011;12268;52.110;5.548;2022-09-09T17:43:02;5.68;;;3.60;;
24084;SDS011;12268;52.110;5.548;2022-09-09T17:45:28;6.82;;;3.90;;
24084;SDS011;12268;52.110;5.548;2022-09-09T17:47:55;6.47;;;3.40;;
24084;SDS011;12268;52.110;5.548;2022-09-09T17:50:21;10.48;;;4.38;;
24084;SDS011;12268;52.110;5.548;2022-09-09T17:52:47;6.53;;;3.88;;
24084;SDS011;12268;52.110;5.548;2022-09-09T17:55:13;7.90;;;3.83;;
24084;SDS011;12268;52.110;5.548;2022-09-09T17:57:38;8.13;;;3.90;;
24084;SDS011;12268;52.110;5.548;2022-09-09T18:00:05;6.05;;;4.00;;
24084;SDS011;12268;52.110;5.548;2022-09-09T18:02:31;6.68;;;3.65;;
24084;SDS011;12268;52.110;5.548;2022-09-09T18:04:57;5.35;;;3.90;;
24084;SDS011;12268;52.110;5.548;2022-09-09T18:07:22;9.27;;;4.20;;
24084;SDS011;12268;52.110;5.548;2022-09-09T18:09:48;6.65;;;4.68;;
24084;SDS011;12268;52.110;5.548;2022-09-09T18:12:14;5.40;;;3.22;;
24084;SDS011;12268;52.110;5.548;2022-09-09T18:14:40;10.82;;;4.18;;
24084;SDS011;12268;52.110;5.548;2022-09-09T18:17:06;7.50;;;3.53;;
24084;SDS011;12268;52.110;5.548;2022-09-09T18:19:33;6.70;;;3.60;;
24084;SDS011;12268;52.110;5.548;2022-09-09T18:21:59;8.60;;;3.55;;
24084;SDS011;12268;52.110;5.548;2022-09-09T18:24:27;5.43;;;3.85;;
24084;SDS011;12268;52.110;5.548;2022-09-09T18:26:53;9.13;;;3.38;;
24084;SDS011;12268;52.110;5.548;2022-09-09T18:29:20;8.25;;;3.70;;
24084;SDS011;12268;52.110;5.548;2022-09-09T18:31:48;9.88;;;3.90;;
24084;SDS011;12268;52.110;5.548;2022-09-09T18:34:15;5.95;;;3.60;;
24084;SDS011;12268;52.110;5.548;2022-09-09T18:36:43;5.13;;;3.33;;
24084;SDS011;12268;52.110;5.548;2022-09-09T18:39:15;5.47;;;2.85;;
24084;SDS011;12268;52.110;5.548;2022-09-09T18:41:43;8.77;;;3.15;;
24084;SDS011;12268;52.110;5.548;2022-09-09T18:44:15;5.85;;;3.10;;
24084;SDS011;12268;52.110;5.548;2022-09-09T18:46:43;6.40;;;2.97;;
24084;SDS011;12268;52.110;5.548;2022-09-09T18:49:09;5.85;;;3.85;;
24084;SDS011;12268;52.110;5.548;2022-09-09T18:51:39;6.70;;;2.92;;
24084;SDS011;12268;52.110;5.548;2022-09-09T18:54:07;5.72;;;3.13;;
24084;SDS011;12268;52.110;5.548;2022-09-09T18:56:36;7.78;;;3.42;;
24084;SDS011;12268;52.110;5.548;2022-09-09T18:59:04;5.95;;;3.40;;
24084;SDS011;12268;52.110;5.548;2022-09-09T19:01:31;6.70;;;3.55;;
24084;SDS011;12268;52.110;5.548;2022-09-09T19:03:59;9.52;;;4.15;;
24084;SDS011;12268;52.110;5.548;2022-09-09T19:06:26;5.70;;;3.97;;
24084;SDS011;12268;52.110;5.548;2022-09-09T19:08:54;10.20;;;4.10;;
24084;SDS011;12268;52.110;5.548;2022-09-09T19:11:20;7.07;;;4.35;;
24084;SDS011;12268;52.110;5.548;2022-09-09T19:13:52;7.60;;;4.10;;
24084;SDS011;12268;52.110;5.548;2022-09-09T19:16:19;5.03;;;4.15;;
24084;SDS011;12268;52.110;5.548;2022-09-09T19:18:47;8.85;;;4.03;;
24084;SDS011;12268;52.110;5.548;2022-09-09T19:21:17;6.68;;;3.70;;
24084;SDS011;12268;52.110;5.548;2022-09-09T19:23:43;7.88;;;4.10;;
24084;SDS011;12268;52.110;5.548;2022-09-09T19:26:10;9.23;;;5.25;;
24084;SDS011;12268;52.110;5.548;2022-09-09T19:28:40;11.05;;;5.72;;
24084;SDS011;12268;52.110;5.548;2022-09-09T19:31:07;9.48;;;5.57;;
24084;SDS011;12268;52.110;5.548;2022-09-09T19:33:34;10.65;;;5.90;;
24084;SDS011;12268;52.110;5.548;2022-09-09T19:36:02;8.95;;;6.30;;
24084;SDS011;12268;52.110;5.548;2022-09-09T19:38:32;10.45;;;6.57;;
24084;SDS011;12268;52.110;5.548;2022-09-09T19:41:04;10.68;;;6.50;;
24084;SDS011;12268;52.110;5.548;2022-09-09T19:43:31;11.82;;;7.25;;
24084;SDS011;12268;52.110;5.548;2022-09-09T19:45:57;16.17;;;7.38;;
24084;SDS011;12268;52.110;5.548;2022-09-09T19:48:25;10.32;;;7.10;;
24084;SDS011;12268;52.110;5.548;2022-09-09T19:50:52;10.23;;;7.60;;
24084;SDS011;12268;52.110;5.548;2022-09-09T19:53:18;10.68;;;8.32;;
24084;SDS011;12268;52.110;5.548;2022-09-09T19:55:47;12.45;;;8.02;;
24084;SDS011;12268;52.110;5.548;2022-09-09T19:58:14;15.75;;;8.65;;
24084;SDS011;12268;52.110;5.548;2022-09-09T20:00:40;11.35;;;7.53;;
24084;SDS011;12268;52.110;5.548;2022-09-09T20:03:05;12.85;;;8.77;;
24084;SDS011;12268;52.110;5.548;2022-09-09T20:05:31;12.50;;;8.70;;
24084;SDS011;12268;52.110;5.548;2022-09-09T20:07:57;12.05;;;8.18;;
24084;SDS011;12268;52.110;5.548;2022-09-09T20:10:22;12.38;;;8.00;;
24084;SDS011;12268;52.110;5.548;2022-09-09T20:12:48;11.15;;;9.05;;
24084;SDS011;12268;52.110;5.548;2022-09-09T20:15:14;12.88;;;9.18;;
24084;SDS011;12268;52.110;5.548;2022-09-09T20:17:39;13.10;;;9.73;;
24084;SDS011;12268;52.110;5.548;2022-09-09T20:20:05;14.85;;;9.82;;
24084;SDS011;12268;52.110;5.548;2022-09-09T20:22:31;14.27;;;9.65;;
24084;SDS011;12268;52.110;5.548;2022-09-09T20:24:57;15.57;;;10.65;;
24084;SDS011;12268;52.110;5.548;2022-09-09T20:27:23;13.77;;;10.27;;
24084;SDS011;12268;52.110;5.548;2022-09-09T20:29:49;16.67;;;9.90;;
24084;SDS011;12268;52.110;5.548;2022-09-09T20:32:15;16.42;;;10.63;;
24084;SDS011;12268;52.110;5.548;2022-09-09T20:34:40;14.75;;;11.43;;
24084;SDS011;12268;52.110;5.548;2022-09-09T20:37:06;19.08;;;11.35;;
24084;SDS011;12268;52.110;5.548;2022-09-09T20:39:31;16.50;;;11.85;;
24084;SDS011;12268;52.110;5.548;2022-09-09T20:41:57;19.10;;;11.35;;
24084;SDS011;12268;52.110;5.548;2022-09-09T20:44:22;16.95;;;11.75;;
24084;SDS011;12268;52.110;5.548;2022-09-09T20:46:49;18.85;;;11.43;;
24084;SDS011;12268;52.110;5.548;2022-09-09T20:49:18;19.00;;;12.07;;
24084;SDS011;12268;52.110;5.548;2022-09-09T20:51:46;17.65;;;12.32;;
24084;SDS011;12268;52.110;5.548;2022-09-09T20:54:15;20.60;;;11.38;;
24084;SDS011;12268;52.110;5.548;2022-09-09T20:56:42;19.08;;;12.23;;
24084;SDS011;12268;52.110;5.548;2022-09-09T20:59:22;20.15;;;12.55;;
24084;SDS011;12268;52.110;5.548;2022-09-09T21:01:49;19.42;;;12.48;;
24084;SDS011;12268;52.110;5.548;2022-09-09T21:04:16;19.45;;;12.85;;
24084;SDS011;12268;52.110;5.548;2022-09-09T21:06:43;18.42;;;12.68;;
24084;SDS011;12268;52.110;5.548;2022-09-09T21:09:09;21.70;;;12.32;;
24084;SDS011;12268;52.110;5.548;2022-09-09T21:11:35;21.15;;;12.65;;
24084;SDS011;12268;52.110;5.548;2022-09-09T21:14:01;19.58;;;13.05;;
24084;SDS011;12268;52.110;5.548;2022-09-09T21:16:27;21.08;;;13.13;;
24084;SDS011;12268;52.110;5.548;2022-09-09T21:18:52;22.35;;;13.35;;
24084;SDS011;12268;52.110;5.548;2022-09-09T21:21:18;19.30;;;13.05;;
24084;SDS011;12268;52.110;5.548;2022-09-09T21:23:44;20.05;;;13.05;;
24084;SDS011;12268;52.110;5.548;2022-09-09T21:26:11;21.52;;;13.45;;
24084;SDS011;12268;52.110;5.548;2022-09-09T21:28:36;19.77;;;13.52;;
24084;SDS011;12268;52.110;5.548;2022-09-09T21:31:03;22.02;;;13.75;;
24084;SDS011;12268;52.110;5.548;2022-09-09T21:33:29;22.85;;;13.35;;
24084;SDS011;12268;52.110;5.548;2022-09-09T21:36:00;23.25;;;14.60;;
24084;SDS011;12268;52.110;5.548;2022-09-09T21:38:28;20.75;;;13.88;;
24084;SDS011;12268;52.110;5.548;2022-09-09T21:40:55;19.52;;;13.60;;
24084;SDS011;12268;52.110;5.548;2022-09-09T21:43:20;21.70;;;14.25;;
24084;SDS011;12268;52.110;5.548;2022-09-09T21:45:47;20.52;;;14.00;;
24084;SDS011;12268;52.110;5.548;2022-09-09T21:48:15;24.45;;;14.15;;
24084;SDS011;12268;52.110;5.548;2022-09-09T21:50:44;18.13;;;13.43;;
24084;SDS011;12268;52.110;5.548;2022-09-09T21:53:11;19.52;;;13.13;;
24084;SDS011;12268;52.110;5.548;2022-09-09T21:55:40;25.35;;;14.48;;
24084;SDS011;12268;52.110;5.548;2022-09-09T21:58:07;22.58;;;14.70;;
24084;SDS011;12268;52.110;5.548;2022-09-09T22:00:33;19.40;;;14.02;;
24084;SDS011;12268;52.110;5.548;2022-09-09T22:03:00;20.83;;;14.18;;
24084;SDS011;12268;52.110;5.548;2022-09-09T22:05:27;19.80;;;14.77;;
24084;SDS011;12268;52.110;5.548;2022-09-09T22:07:55;21.08;;;14.70;;
24084;SDS011;12268;52.110;5.548;2022-09-09T22:10:20;24.45;;;15.15;;
24084;SDS011;12268;52.110;5.548;2022-09-09T22:12:47;23.63;;;15.18;;
24084;SDS011;12268;52.110;5.548;2022-09-09T22:15:13;22.02;;;14.75;;
24084;SDS011;12268;52.110;5.548;2022-09-09T22:17:39;21.38;;;14.30;;
24084;SDS011;12268;52.110;5.548;2022-09-09T22:20:06;20.30;;;14.55;;
24084;SDS011;12268;52.110;5.548;2022-09-09T22:22:32;28.08;;;15.45;;
24084;SDS011;12268;52.110;5.548;2022-09-09T22:24:58;21.77;;;15.65;;
24084;SDS011;12268;52.110;5.548;2022-09-09T22:27:23;24.02;;;15.13;;
24084;SDS011;12268;52.110;5.548;2022-09-09T22:29:49;22.85;;;15.30;;
24084;SDS011;12268;52.110;5.548;2022-09-09T22:32:15;23.65;;;16.27;;
24084;SDS011;12268;52.110;5.548;2022-09-09T22:34:41;25.15;;;15.55;;
24084;SDS011;12268;52.110;5.548;2022-09-09T22:37:06;22.13;;;15.15;;
24084;SDS011;12268;52.110;5.548;2022-09-09T22:39:32;23.63;;;15.98;;
